createdAt,value
2024-02-13T00:03:11.100Z,2.71
2024-02-13T00:08:44.196Z,2.71
2024-02-13T00:13:58.392Z,2.73
2024-02-13T00:19:20.940Z,2.73
2024-02-13T00:24:45.087Z,2.71
2024-02-13T00:30:07.506Z,2.72
2024-02-13T00:35:31.218Z,2.72
2024-02-13T00:40:53.554Z,2.71
2024-02-13T00:46:15.965Z,2.73
2024-02-13T00:51:38.347Z,2.75
2024-02-13T00:57:00.913Z,2.75
2024-02-13T01:02:24.285Z,2.75
2024-02-13T01:07:46.857Z,2.76
2024-02-13T01:13:09.229Z,2.77
2024-02-13T01:18:31.939Z,2.80
2024-02-13T01:23:54.370Z,2.81
2024-02-13T01:29:16.948Z,2.85
2024-02-13T01:34:39.364Z,2.86
2024-02-13T01:40:03.811Z,2.88
2024-02-13T01:45:26.783Z,2.89
2024-02-13T01:50:51.495Z,2.94
2024-02-13T01:56:16.851Z,2.99
2024-02-13T02:01:39.762Z,3.02
2024-02-13T02:07:02.386Z,3.07
2024-02-13T02:12:25.106Z,3.10
2024-02-13T02:17:49.227Z,3.14
2024-02-13T02:23:11.743Z,3.19
2024-02-13T02:28:35.442Z,3.21
2024-02-13T02:33:58.466Z,3.23
2024-02-13T02:39:20.901Z,3.28
2024-02-13T02:44:43.346Z,3.30
2024-02-13T02:50:05.770Z,3.34
2024-02-13T02:55:30.680Z,3.37
2024-02-13T03:00:53.599Z,3.42
2024-02-13T03:06:16.179Z,3.52
2024-02-13T03:11:38.773Z,3.53
2024-02-13T03:17:01.251Z,3.55
2024-02-13T03:22:23.948Z,3.57
2024-02-13T03:27:46.736Z,3.61
2024-02-13T03:33:09.202Z,3.66
2024-02-13T03:38:32.490Z,3.70
2024-02-13T03:43:55.094Z,3.73
2024-02-13T03:49:18.462Z,3.77
2024-02-13T03:54:40.836Z,3.82
2024-02-13T04:00:03.325Z,3.86
2024-02-13T04:05:26.316Z,3.91
2024-02-13T04:10:49.150Z,3.94
2024-02-13T04:16:12.816Z,3.95
2024-02-13T04:21:36.359Z,3.97
2024-02-13T04:27:00.867Z,4.00
2024-02-13T04:32:25.265Z,4.04
2024-02-13T04:37:48.762Z,4.06
2024-02-13T04:43:11.705Z,4.09
2024-02-13T04:48:34.983Z,4.11
2024-02-13T04:53:58.480Z,4.10
2024-02-13T04:59:22.560Z,4.14
2024-02-13T05:05:02.579Z,4.17
2024-02-13T05:10:25.927Z,4.19
2024-02-13T05:15:49.147Z,4.25
2024-02-13T05:21:11.904Z,4.25
2024-02-13T05:26:36.234Z,4.28
2024-02-13T05:31:58.813Z,4.27
2024-02-13T05:37:22.329Z,4.30
2024-02-13T05:42:46.016Z,4.31
2024-02-13T05:48:08.533Z,4.30
2024-02-13T05:53:31.564Z,4.32
2024-02-13T05:58:54.049Z,4.33
2024-02-13T06:04:16.683Z,4.31
2024-02-13T06:09:39.799Z,4.35
2024-02-13T06:15:02.783Z,4.37
2024-02-13T06:20:25.715Z,4.36
2024-02-13T06:25:48.303Z,4.34
2024-02-13T06:31:10.917Z,4.33
2024-02-13T06:36:34.194Z,4.32
2024-02-13T06:41:56.876Z,4.33
2024-02-13T06:47:19.416Z,4.36
2024-02-13T06:52:41.978Z,4.38
2024-02-13T06:58:05.095Z,4.39
2024-02-13T07:03:27.514Z,4.43
2024-02-13T07:08:50.223Z,4.49
2024-02-13T07:14:13.918Z,4.55
2024-02-13T07:19:37.282Z,4.62
2024-02-13T07:30:33.046Z,4.76
2024-02-13T07:35:55.769Z,4.59
2024-02-13T07:41:18.282Z,4.59
2024-02-13T07:46:41.812Z,4.56
2024-02-13T07:52:14.767Z,4.52
2024-02-13T07:57:41.730Z,4.64
2024-02-13T08:03:04.371Z,4.85
2024-02-13T08:08:27.873Z,4.96
2024-02-13T08:13:50.861Z,4.99
2024-02-13T08:19:15.877Z,5.07
2024-02-13T08:24:38.775Z,5.07
2024-02-13T08:30:01.286Z,5.14
2024-02-13T08:35:27.313Z,5.16
2024-02-13T08:40:49.971Z,5.28
2024-02-13T08:46:14.042Z,5.28
2024-02-13T08:51:38.667Z,5.14
2024-02-13T08:57:01.298Z,5.15
2024-02-13T09:02:24.666Z,5.16
2024-02-13T09:07:47.030Z,5.20
2024-02-13T09:13:09.627Z,5.23
2024-02-13T09:18:32.681Z,5.27
2024-02-13T09:23:57.269Z,5.27
2024-02-13T09:29:38.423Z,5.24
2024-02-13T09:35:02.106Z,5.20
2024-02-13T09:40:25.756Z,5.14
